Bangassou Airport


Codes: FEFG/BGU
Name: Bangassou Airport
City: Bangassou
Country: Central African Republic
Elevation: 1706 ft.
Wikipedia:

Photos at Bangassou Airport


   Photos courtesy of SpottingLog. You can add your own sightings and photos by signing up for a free trial today.



No photos found.

Weather at Bangassou Airport


Time (UTC)DescriptionTempratureWindCloud coverageVisibilityPressureHumidity
17-Jun-2024 06:00Overcast Clouds20°C2 mph, SW100%10000m1014hPa90%
17-Jun-2024 09:00Broken Clouds27°C2 mph, SW65%10000m1013hPa66%
17-Jun-2024 12:00Scattered Clouds33°C4 mph, SW43%10000m1010hPa41%
17-Jun-2024 15:00Moderate Rain22°C4 mph, E99%2641m1010hPa98%
17-Jun-2024 18:00Moderate Rain21°C4 mph, SW97%10000m1011hPa96%
17-Jun-2024 21:00Light Rain20°C0 mph, NW99%10000m1014hPa99%
18-Jun-2024 00:00Overcast Clouds20°C2 mph, SW100%10000m1012hPa99%
18-Jun-2024 03:00Overcast Clouds19°C2 mph, S92%10000m1012hPa98%
18-Jun-2024 06:00Overcast Clouds21°C0 mph, E94%10000m1014hPa94%
18-Jun-2024 09:00Few Clouds30°C0 mph, E12%10000m1013hPa54%
18-Jun-2024 12:00Few Clouds33°C2 mph, NE12%10000m1009hPa40%
18-Jun-2024 15:00Scattered Clouds32°C2 mph, W34%10000m1008hPa47%
18-Jun-2024 18:00Broken Clouds26°C2 mph, S65%10000m1009hPa65%
18-Jun-2024 21:00Broken Clouds23°C2 mph, S66%10000m1010hPa77%
19-Jun-2024 00:00Scattered Clouds21°C2 mph, S34%10000m1010hPa82%
19-Jun-2024 03:00Clear Sky21°C0 mph, S4%10000m1010hPa84%
19-Jun-2024 06:00Clear Sky24°C0 mph, S6%10000m1012hPa72%
19-Jun-2024 09:00Few Clouds32°C0 mph, S14%10000m1011hPa45%
19-Jun-2024 12:00Scattered Clouds34°C0 mph, N46%10000m1008hPa37%
19-Jun-2024 15:00Overcast Clouds32°C0 mph, NW87%10000m1006hPa50%
19-Jun-2024 18:00Light Rain25°C2 mph, N84%10000m1009hPa73%
19-Jun-2024 21:00Light Rain23°C0 mph, SW73%10000m1011hPa82%
20-Jun-2024 00:00Light Rain21°C2 mph, N85%10000m1010hPa92%
20-Jun-2024 03:00Overcast Clouds21°C0 mph, NE100%10000m1010hPa92%
20-Jun-2024 06:00Overcast Clouds23°C2 mph, NE100%10000m1012hPa84%
20-Jun-2024 09:00Overcast Clouds32°C0 mph, NE99%10000m1012hPa49%
20-Jun-2024 12:00Overcast Clouds34°C2 mph, NW100%10000m1009hPa38%
20-Jun-2024 15:00Overcast Clouds32°C2 mph, NE97%10000m1005hPa48%
20-Jun-2024 18:00Light Rain24°C2 mph, E99%10000m1010hPa82%
20-Jun-2024 21:00Light Rain22°C2 mph, NW100%10000m1012hPa92%
21-Jun-2024 00:00Overcast Clouds22°C2 mph, N100%10000m1011hPa94%
21-Jun-2024 03:00Light Rain20°C2 mph, N100%10000m1013hPa99%
21-Jun-2024 06:00Overcast Clouds23°C2 mph, NE97%10000m1014hPa94%
21-Jun-2024 09:00Scattered Clouds32°C2 mph, E46%10000m1012hPa49%
21-Jun-2024 12:00Scattered Clouds36°C0 mph, NE29%10000m1008hPa34%
21-Jun-2024 15:00Scattered Clouds35°C0 mph, SW27%10000m1006hPa41%
21-Jun-2024 18:00Broken Clouds26°C2 mph, NW59%10000m1008hPa64%
21-Jun-2024 21:00Broken Clouds24°C2 mph, NE79%10000m1010hPa72%
22-Jun-2024 00:00Broken Clouds23°C2 mph, NW73%10000m1010hPa81%
22-Jun-2024 03:00Scattered Clouds22°C2 mph, SW25%10000m1010hPa85%